sensor_id;sensor_type;location;lat;lon;timestamp;temperature;humidity
40534;DHT22;26233;51.894;10.192;2023-04-09T00:02:13;8.40;44.50
40534;DHT22;26233;51.894;10.192;2023-04-09T00:04:43;8.40;44.50
40534;DHT22;26233;51.894;10.192;2023-04-09T00:07:10;8.40;44.60
40534;DHT22;26233;51.894;10.192;2023-04-09T00:09:37;8.40;44.60
40534;DHT22;26233;51.894;10.192;2023-04-09T00:12:04;8.40;44.60
40534;DHT22;26233;51.894;10.192;2023-04-09T00:14:31;8.40;44.50
40534;DHT22;26233;51.894;10.192;2023-04-09T00:16:58;8.40;44.50
40534;DHT22;26233;51.894;10.192;2023-04-09T00:19:26;8.30;44.40
40534;DHT22;26233;51.894;10.192;2023-04-09T00:21:53;8.30;44.40
40534;DHT22;26233;51.894;10.192;2023-04-09T00:24:21;8.30;44.40
40534;DHT22;26233;51.894;10.192;2023-04-09T00:26:48;8.30;44.30
40534;DHT22;26233;51.894;10.192;2023-04-09T00:29:15;8.20;44.20
40534;DHT22;26233;51.894;10.192;2023-04-09T00:31:45;8.10;44.30
40534;DHT22;26233;51.894;10.192;2023-04-09T00:34:12;8.20;44.50
40534;DHT22;26233;51.894;10.192;2023-04-09T00:36:41;8.10;44.50
40534;DHT22;26233;51.894;10.192;2023-04-09T00:39:08;8.10;44.60
40534;DHT22;26233;51.894;10.192;2023-04-09T00:41:35;8.10;44.60
40534;DHT22;26233;51.894;10.192;2023-04-09T00:44:02;8.10;44.60
40534;DHT22;26233;51.894;10.192;2023-04-09T00:46:30;8.10;44.60
40534;DHT22;26233;51.894;10.192;2023-04-09T00:48:57;8.10;44.50
40534;DHT22;26233;51.894;10.192;2023-04-09T00:51:25;8.10;45.00
40534;DHT22;26233;51.894;10.192;2023-04-09T00:53:54;8.00;44.30
40534;DHT22;26233;51.894;10.192;2023-04-09T00:56:22;8.00;44.20
40534;DHT22;26233;51.894;10.192;2023-04-09T00:58:50;7.90;44.20
40534;DHT22;26233;51.894;10.192;2023-04-09T01:01:17;7.90;44.30
40534;DHT22;26233;51.894;10.192;2023-04-09T01:03:44;7.90;44.30
40534;DHT22;26233;51.894;10.192;2023-04-09T01:06:16;7.80;44.30
40534;DHT22;26233;51.894;10.192;2023-04-09T01:08:54;7.80;44.40
40534;DHT22;26233;51.894;10.192;2023-04-09T01:11:34;7.80;44.40
40534;DHT22;26233;51.894;10.192;2023-04-09T01:14:07;7.70;44.40
40534;DHT22;26233;51.894;10.192;2023-04-09T01:16:41;7.70;44.40
40534;DHT22;26233;51.894;10.192;2023-04-09T01:19:20;7.70;44.70
40534;DHT22;26233;51.894;10.192;2023-04-09T01:21:59;7.60;44.60
40534;DHT22;26233;51.894;10.192;2023-04-09T01:24:36;7.60;44.40
40534;DHT22;26233;51.894;10.192;2023-04-09T01:27:11;7.60;44.60
40534;DHT22;26233;51.894;10.192;2023-04-09T01:29:46;7.60;44.40
40534;DHT22;26233;51.894;10.192;2023-04-09T01:32:16;7.60;44.50
40534;DHT22;26233;51.894;10.192;2023-04-09T01:34:45;7.50;44.50
40534;DHT22;26233;51.894;10.192;2023-04-09T01:37:14;7.50;44.70
40534;DHT22;26233;51.894;10.192;2023-04-09T01:39:43;7.60;44.90
40534;DHT22;26233;51.894;10.192;2023-04-09T01:42:11;7.50;44.80
40534;DHT22;26233;51.894;10.192;2023-04-09T01:44:39;7.60;45.00
40534;DHT22;26233;51.894;10.192;2023-04-09T01:47:08;7.60;45.20
40534;DHT22;26233;51.894;10.192;2023-04-09T01:49:35;7.70;45.30
40534;DHT22;26233;51.894;10.192;2023-04-09T01:52:03;7.70;45.40
40534;DHT22;26233;51.894;10.192;2023-04-09T01:54:30;7.80;45.60
40534;DHT22;26233;51.894;10.192;2023-04-09T01:56:57;7.90;45.70
40534;DHT22;26233;51.894;10.192;2023-04-09T01:59:25;7.90;45.60
40534;DHT22;26233;51.894;10.192;2023-04-09T02:01:54;8.00;45.60
40534;DHT22;26233;51.894;10.192;2023-04-09T02:04:28;8.10;45.60
40534;DHT22;26233;51.894;10.192;2023-04-09T02:07:03;8.10;45.50
40534;DHT22;26233;51.894;10.192;2023-04-09T02:09:36;8.20;45.60
40534;DHT22;26233;51.894;10.192;2023-04-09T02:12:06;8.20;45.60
40534;DHT22;26233;51.894;10.192;2023-04-09T02:14:36;8.30;45.60
40534;DHT22;26233;51.894;10.192;2023-04-09T02:17:06;8.30;45.60
40534;DHT22;26233;51.894;10.192;2023-04-09T02:19:42;8.40;45.60
40534;DHT22;26233;51.894;10.192;2023-04-09T02:22:11;8.40;45.60
40534;DHT22;26233;51.894;10.192;2023-04-09T02:24:39;8.40;45.30
40534;DHT22;26233;51.894;10.192;2023-04-09T02:27:07;8.40;45.00
40534;DHT22;26233;51.894;10.192;2023-04-09T02:29:34;8.30;44.90
40534;DHT22;26233;51.894;10.192;2023-04-09T02:32:01;8.30;44.80
40534;DHT22;26233;51.894;10.192;2023-04-09T02:34:28;8.20;44.70
40534;DHT22;26233;51.894;10.192;2023-04-09T02:36:56;8.10;44.70
40534;DHT22;26233;51.894;10.192;2023-04-09T02:39:23;8.00;44.50
40534;DHT22;26233;51.894;10.192;2023-04-09T02:41:51;8.00;44.50
40534;DHT22;26233;51.894;10.192;2023-04-09T02:44:18;7.80;44.30
40534;DHT22;26233;51.894;10.192;2023-04-09T02:46:46;7.70;44.30
40534;DHT22;26233;51.894;10.192;2023-04-09T02:49:13;7.70;44.50
40534;DHT22;26233;51.894;10.192;2023-04-09T02:51:44;7.60;44.60
40534;DHT22;26233;51.894;10.192;2023-04-09T02:54:12;7.50;44.50
40534;DHT22;26233;51.894;10.192;2023-04-09T02:56:39;7.50;44.60
40534;DHT22;26233;51.894;10.192;2023-04-09T02:59:06;7.40;44.60
40534;DHT22;26233;51.894;10.192;2023-04-09T03:01:33;7.40;44.70
40534;DHT22;26233;51.894;10.192;2023-04-09T03:04:01;7.30;44.70
40534;DHT22;26233;51.894;10.192;2023-04-09T03:06:30;7.30;44.70
40534;DHT22;26233;51.894;10.192;2023-04-09T03:08:57;7.30;44.90
40534;DHT22;26233;51.894;10.192;2023-04-09T03:11:25;7.30;44.80
40534;DHT22;26233;51.894;10.192;2023-04-09T03:13:52;7.20;44.70
40534;DHT22;26233;51.894;10.192;2023-04-09T03:16:19;7.20;44.70
40534;DHT22;26233;51.894;10.192;2023-04-09T03:18:46;7.20;44.80
40534;DHT22;26233;51.894;10.192;2023-04-09T03:21:13;7.10;45.40
40534;DHT22;26233;51.894;10.192;2023-04-09T03:23:40;7.20;45.00
40534;DHT22;26233;51.894;10.192;2023-04-09T03:26:07;7.10;45.10
40534;DHT22;26233;51.894;10.192;2023-04-09T03:28:36;7.10;45.10
40534;DHT22;26233;51.894;10.192;2023-04-09T03:31:03;7.10;45.10
40534;DHT22;26233;51.894;10.192;2023-04-09T03:33:30;7.10;45.20
40534;DHT22;26233;51.894;10.192;2023-04-09T03:35:57;7.10;45.00
40534;DHT22;26233;51.894;10.192;2023-04-09T03:38:25;7.10;44.90
40534;DHT22;26233;51.894;10.192;2023-04-09T03:40:52;7.10;44.80
40534;DHT22;26233;51.894;10.192;2023-04-09T03:43:19;7.00;44.80
40534;DHT22;26233;51.894;10.192;2023-04-09T03:45:48;7.00;44.80
40534;DHT22;26233;51.894;10.192;2023-04-09T03:48:15;6.90;44.70
40534;DHT22;26233;51.894;10.192;2023-04-09T03:50:42;6.90;44.70
40534;DHT22;26233;51.894;10.192;2023-04-09T03:53:10;6.90;44.80
40534;DHT22;26233;51.894;10.192;2023-04-09T03:55:37;6.90;44.70
40534;DHT22;26233;51.894;10.192;2023-04-09T03:58:04;6.80;44.60
40534;DHT22;26233;51.894;10.192;2023-04-09T04:00:31;6.80;44.60
40534;DHT22;26233;51.894;10.192;2023-04-09T04:02:59;6.70;44.50
40534;DHT22;26233;51.894;10.192;2023-04-09T04:05:26;6.70;44.60
40534;DHT22;26233;51.894;10.192;2023-04-09T04:07:53;6.60;44.50
40534;DHT22;26233;51.894;10.192;2023-04-09T04:10:20;6.60;44.60
40534;DHT22;26233;51.894;10.192;2023-04-09T04:12:47;6.60;44.80
40534;DHT22;26233;51.894;10.192;2023-04-09T04:15:14;6.50;44.70
40534;DHT22;26233;51.894;10.192;2023-04-09T04:17:41;6.50;44.70
40534;DHT22;26233;51.894;10.192;2023-04-09T04:20:12;6.50;44.70
40534;DHT22;26233;51.894;10.192;2023-04-09T04:22:39;6.40;44.70
40534;DHT22;26233;51.894;10.192;2023-04-09T04:25:09;6.40;44.70
40534;DHT22;26233;51.894;10.192;2023-04-09T04:27:36;6.40;44.90
40534;DHT22;26233;51.894;10.192;2023-04-09T04:30:04;6.40;44.90
40534;DHT22;26233;51.894;10.192;2023-04-09T04:32:32;6.40;45.00
40534;DHT22;26233;51.894;10.192;2023-04-09T04:34:59;6.40;44.90
40534;DHT22;26233;51.894;10.192;2023-04-09T04:37:28;6.40;44.90
40534;DHT22;26233;51.894;10.192;2023-04-09T04:39:55;6.40;45.00
40534;DHT22;26233;51.894;10.192;2023-04-09T04:42:22;6.30;45.00
40534;DHT22;26233;51.894;10.192;2023-04-09T04:44:49;6.40;45.20
40534;DHT22;26233;51.894;10.192;2023-04-09T04:47:16;6.40;45.20
40534;DHT22;26233;51.894;10.192;2023-04-09T04:49:43;6.40;45.30
40534;DHT22;26233;51.894;10.192;2023-04-09T04:52:10;6.40;45.30
40534;DHT22;26233;51.894;10.192;2023-04-09T04:54:39;6.40;45.40
40534;DHT22;26233;51.894;10.192;2023-04-09T04:57:06;6.40;46.00
40534;DHT22;26233;51.894;10.192;2023-04-09T04:59:35;6.40;45.50
40534;DHT22;26233;51.894;10.192;2023-04-09T05:02:05;6.50;45.70
40534;DHT22;26233;51.894;10.192;2023-04-09T05:04:32;6.50;45.70
40534;DHT22;26233;51.894;10.192;2023-04-09T05:06:59;6.50;45.70
40534;DHT22;26233;51.894;10.192;2023-04-09T05:09:28;6.60;45.90
40534;DHT22;26233;51.894;10.192;2023-04-09T05:11:58;6.60;45.90
40534;DHT22;26233;51.894;10.192;2023-04-09T05:14:25;6.70;46.00
40534;DHT22;26233;51.894;10.192;2023-04-09T05:16:52;6.70;45.90
40534;DHT22;26233;51.894;10.192;2023-04-09T05:19:19;6.80;46.00
40534;DHT22;26233;51.894;10.192;2023-04-09T05:21:46;6.80;46.10
40534;DHT22;26233;51.894;10.192;2023-04-09T05:24:15;6.80;45.90
40534;DHT22;26233;51.894;10.192;2023-04-09T05:26:42;6.90;46.00
40534;DHT22;26233;51.894;10.192;2023-04-09T05:29:10;7.10;46.00
40534;DHT22;26233;51.894;10.192;2023-04-09T05:31:39;6.90;45.70
40534;DHT22;26233;51.894;10.192;2023-04-09T05:34:07;6.90;45.70
40534;DHT22;26233;51.894;10.192;2023-04-09T05:36:34;6.90;45.70
40534;DHT22;26233;51.894;10.192;2023-04-09T05:39:01;6.90;45.70
40534;DHT22;26233;51.894;10.192;2023-04-09T05:41:28;6.90;45.60
40534;DHT22;26233;51.894;10.192;2023-04-09T05:43:57;6.90;45.60
40534;DHT22;26233;51.894;10.192;2023-04-09T05:46:25;6.90;45.60
40534;DHT22;26233;51.894;10.192;2023-04-09T05:48:53;6.90;45.70
40534;DHT22;26233;51.894;10.192;2023-04-09T05:51:20;6.90;45.70
40534;DHT22;26233;51.894;10.192;2023-04-09T05:53:47;6.90;46.00
40534;DHT22;26233;51.894;10.192;2023-04-09T05:56:14;6.90;46.00
40534;DHT22;26233;51.894;10.192;2023-04-09T05:58:42;7.00;46.30
40534;DHT22;26233;51.894;10.192;2023-04-09T06:01:09;7.00;46.30
40534;DHT22;26233;51.894;10.192;2023-04-09T06:03:37;7.10;46.30
40534;DHT22;26233;51.894;10.192;2023-04-09T06:06:05;7.10;46.40
40534;DHT22;26233;51.894;10.192;2023-04-09T06:08:32;7.20;46.40
40534;DHT22;26233;51.894;10.192;2023-04-09T06:10:59;7.20;46.60
40534;DHT22;26233;51.894;10.192;2023-04-09T06:13:26;7.30;46.70
40534;DHT22;26233;51.894;10.192;2023-04-09T06:15:53;7.40;46.80
40534;DHT22;26233;51.894;10.192;2023-04-09T06:18:20;7.40;46.70
40534;DHT22;26233;51.894;10.192;2023-04-09T06:20:49;7.50;46.70
40534;DHT22;26233;51.894;10.192;2023-04-09T06:23:16;7.60;46.90
40534;DHT22;26233;51.894;10.192;2023-04-09T06:25:43;7.60;47.40
40534;DHT22;26233;51.894;10.192;2023-04-09T06:28:10;7.70;47.00
40534;DHT22;26233;51.894;10.192;2023-04-09T06:30:37;7.80;47.10
40534;DHT22;26233;51.894;10.192;2023-04-09T06:33:04;7.90;47.20
40534;DHT22;26233;51.894;10.192;2023-04-09T06:35:31;8.00;47.20
40534;DHT22;26233;51.894;10.192;2023-04-09T06:37:59;8.10;47.30
40534;DHT22;26233;51.894;10.192;2023-04-09T06:40:26;8.10;47.30
40534;DHT22;26233;51.894;10.192;2023-04-09T06:42:53;8.30;47.50
40534;DHT22;26233;51.894;10.192;2023-04-09T06:45:21;8.30;47.60
40534;DHT22;26233;51.894;10.192;2023-04-09T06:47:48;8.40;47.60
40534;DHT22;26233;51.894;10.192;2023-04-09T06:50:15;8.30;47.50
40534;DHT22;26233;51.894;10.192;2023-04-09T06:52:42;8.60;47.60
40534;DHT22;26233;51.894;10.192;2023-04-09T06:55:10;8.60;47.50
40534;DHT22;26233;51.894;10.192;2023-04-09T06:57:38;8.70;47.60
40534;DHT22;26233;51.894;10.192;2023-04-09T07:00:06;8.80;47.60
40534;DHT22;26233;51.894;10.192;2023-04-09T07:02:34;8.90;47.60
40534;DHT22;26233;51.894;10.192;2023-04-09T07:05:01;9.00;47.60
40534;DHT22;26233;51.894;10.192;2023-04-09T07:07:29;9.10;47.70
40534;DHT22;26233;51.894;10.192;2023-04-09T07:09:56;9.10;47.70
40534;DHT22;26233;51.894;10.192;2023-04-09T07:12:28;9.20;47.70
40534;DHT22;26233;51.894;10.192;2023-04-09T07:14:58;9.30;47.70
40534;DHT22;26233;51.894;10.192;2023-04-09T07:17:26;9.30;47.80
40534;DHT22;26233;51.894;10.192;2023-04-09T07:19:53;9.40;47.80
40534;DHT22;26233;51.894;10.192;2023-04-09T07:22:21;9.50;48.00
40534;DHT22;26233;51.894;10.192;2023-04-09T07:24:48;9.60;48.10
40534;DHT22;26233;51.894;10.192;2023-04-09T07:27:18;9.80;48.20
40534;DHT22;26233;51.894;10.192;2023-04-09T07:29:47;9.80;48.20
40534;DHT22;26233;51.894;10.192;2023-04-09T07:32:14;9.90;48.20
40534;DHT22;26233;51.894;10.192;2023-04-09T07:34:42;10.00;47.20
40534;DHT22;26233;51.894;10.192;2023-04-09T07:37:12;10.10;47.30
40534;DHT22;26233;51.894;10.192;2023-04-09T07:39:39;10.20;47.40
40534;DHT22;26233;51.894;10.192;2023-04-09T07:42:07;10.30;47.40
40534;DHT22;26233;51.894;10.192;2023-04-09T07:44:34;10.50;47.50
40534;DHT22;26233;51.894;10.192;2023-04-09T07:47:06;10.60;47.60
40534;DHT22;26233;51.894;10.192;2023-04-09T07:49:40;10.70;47.70
40534;DHT22;26233;51.894;10.192;2023-04-09T07:52:07;10.80;47.70
40534;DHT22;26233;51.894;10.192;2023-04-09T07:54:34;11.00;47.90
40534;DHT22;26233;51.894;10.192;2023-04-09T07:57:02;11.10;47.90
40534;DHT22;26233;51.894;10.192;2023-04-09T07:59:29;11.30;47.90
40534;DHT22;26233;51.894;10.192;2023-04-09T08:01:56;11.50;48.00
40534;DHT22;26233;51.894;10.192;2023-04-09T08:04:25;11.70;48.20
40534;DHT22;26233;51.894;10.192;2023-04-09T08:06:52;11.90;48.10
40534;DHT22;26233;51.894;10.192;2023-04-09T08:09:19;12.10;47.90
40534;DHT22;26233;51.894;10.192;2023-04-09T08:11:47;12.30;47.70
40534;DHT22;26233;51.894;10.192;2023-04-09T08:14:16;12.50;47.50
40534;DHT22;26233;51.894;10.192;2023-04-09T08:16:45;12.70;47.60
40534;DHT22;26233;51.894;10.192;2023-04-09T08:19:14;13.00;48.50
40534;DHT22;26233;51.894;10.192;2023-04-09T08:21:43;13.50;49.90
40534;DHT22;26233;51.894;10.192;2023-04-09T08:24:13;14.10;51.10
40534;DHT22;26233;51.894;10.192;2023-04-09T08:26:41;14.90;51.90
40534;DHT22;26233;51.894;10.192;2023-04-09T08:29:10;15.60;51.20
40534;DHT22;26233;51.894;10.192;2023-04-09T08:31:38;16.00;49.30
40534;DHT22;26233;51.894;10.192;2023-04-09T08:34:05;16.30;47.70
40534;DHT22;26233;51.894;10.192;2023-04-09T08:36:32;16.50;46.50
40534;DHT22;26233;51.894;10.192;2023-04-09T08:39:01;16.50;45.60
40534;DHT22;26233;51.894;10.192;2023-04-09T08:41:29;16.40;45.00
40534;DHT22;26233;51.894;10.192;2023-04-09T08:43:56;16.30;44.70
40534;DHT22;26233;51.894;10.192;2023-04-09T08:46:25;16.20;44.30
40534;DHT22;26233;51.894;10.192;2023-04-09T08:48:52;16.10;44.20
40534;DHT22;26233;51.894;10.192;2023-04-09T08:51:20;15.90;43.70
40534;DHT22;26233;51.894;10.192;2023-04-09T08:53:51;15.70;43.50
40534;DHT22;26233;51.894;10.192;2023-04-09T08:56:23;15.50;43.20
40534;DHT22;26233;51.894;10.192;2023-04-09T08:58:51;15.40;43.20
40534;DHT22;26233;51.894;10.192;2023-04-09T09:01:21;15.20;43.30
40534;DHT22;26233;51.894;10.192;2023-04-09T09:03:56;15.10;43.30
40534;DHT22;26233;51.894;10.192;2023-04-09T09:06:25;15.00;43.20
40534;DHT22;26233;51.894;10.192;2023-04-09T09:09:00;14.90;43.20
40534;DHT22;26233;51.894;10.192;2023-04-09T09:11:33;14.70;42.70
40534;DHT22;26233;51.894;10.192;2023-04-09T09:14:03;14.60;42.70
40534;DHT22;26233;51.894;10.192;2023-04-09T09:16:34;14.40;42.60
40534;DHT22;26233;51.894;10.192;2023-04-09T09:19:08;14.30;42.50
40534;DHT22;26233;51.894;10.192;2023-04-09T09:21:35;14.10;42.60
40534;DHT22;26233;51.894;10.192;2023-04-09T09:24:15;14.00;42.60
40534;DHT22;26233;51.894;10.192;2023-04-09T09:26:45;13.90;42.50
40534;DHT22;26233;51.894;10.192;2023-04-09T09:29:13;13.80;42.60
40534;DHT22;26233;51.894;10.192;2023-04-09T09:31:46;13.50;42.60
40534;DHT22;26233;51.894;10.192;2023-04-09T09:34:16;13.50;42.80
40534;DHT22;26233;51.894;10.192;2023-04-09T09:36:44;13.40;42.90
40534;DHT22;26233;51.894;10.192;2023-04-09T09:39:13;13.20;42.90
40534;DHT22;26233;51.894;10.192;2023-04-09T09:41:43;13.10;42.80
40534;DHT22;26233;51.894;10.192;2023-04-09T09:44:29;13.00;42.90
40534;DHT22;26233;51.894;10.192;2023-04-09T09:46:58;12.80;42.70
40534;DHT22;26233;51.894;10.192;2023-04-09T09:49:29;12.60;42.70
40534;DHT22;26233;51.894;10.192;2023-04-09T09:51:59;12.70;43.00
40534;DHT22;26233;51.894;10.192;2023-04-09T09:54:30;12.40;42.90
40534;DHT22;26233;51.894;10.192;2023-04-09T09:57:03;12.40;43.10
40534;DHT22;26233;51.894;10.192;2023-04-09T09:59:36;12.30;43.20
40534;DHT22;26233;51.894;10.192;2023-04-09T10:02:04;12.20;43.20
40534;DHT22;26233;51.894;10.192;2023-04-09T10:04:33;12.10;43.20
40534;DHT22;26233;51.894;10.192;2023-04-09T10:07:03;12.00;43.10
40534;DHT22;26233;51.894;10.192;2023-04-09T10:09:34;12.00;43.30
40534;DHT22;26233;51.894;10.192;2023-04-09T10:12:08;12.00;43.50
40534;DHT22;26233;51.894;10.192;2023-04-09T10:14:36;12.00;43.50
40534;DHT22;26233;51.894;10.192;2023-04-09T10:17:04;11.90;43.40
40534;DHT22;26233;51.894;10.192;2023-04-09T10:19:36;11.90;43.60
40534;DHT22;26233;51.894;10.192;2023-04-09T10:22:09;12.00;43.90
40534;DHT22;26233;51.894;10.192;2023-04-09T10:24:37;12.00;43.90
40534;DHT22;26233;51.894;10.192;2023-04-09T10:27:13;12.10;43.90
40534;DHT22;26233;51.894;10.192;2023-04-09T10:29:42;12.10;43.80
40534;DHT22;26233;51.894;10.192;2023-04-09T10:32:10;12.10;43.80
40534;DHT22;26233;51.894;10.192;2023-04-09T10:34:40;12.10;43.70
40534;DHT22;26233;51.894;10.192;2023-04-09T10:37:13;12.10;43.70
40534;DHT22;26233;51.894;10.192;2023-04-09T10:39:44;12.20;43.70
40534;DHT22;26233;51.894;10.192;2023-04-09T10:42:17;12.20;43.70
40534;DHT22;26233;51.894;10.192;2023-04-09T10:45:03;12.20;43.60
40534;DHT22;26233;51.894;10.192;2023-04-09T10:47:33;12.40;43.70
40534;DHT22;26233;51.894;10.192;2023-04-09T10:50:15;12.20;43.50
40534;DHT22;26233;51.894;10.192;2023-04-09T10:52:43;12.30;43.50
40534;DHT22;26233;51.894;10.192;2023-04-09T10:55:29;12.30;43.70
40534;DHT22;26233;51.894;10.192;2023-04-09T10:57:59;12.40;43.70
40534;DHT22;26233;51.894;10.192;2023-04-09T11:00:26;12.50;44.10
40534;DHT22;26233;51.894;10.192;2023-04-09T11:03:18;12.60;44.20
40534;DHT22;26233;51.894;10.192;2023-04-09T11:05:47;12.70;44.20
40534;DHT22;26233;51.894;10.192;2023-04-09T11:08:17;12.90;44.70
40534;DHT22;26233;51.894;10.192;2023-04-09T11:10:46;13.20;45.00
40534;DHT22;26233;51.894;10.192;2023-04-09T11:13:17;13.70;46.20
40534;DHT22;26233;51.894;10.192;2023-04-09T11:15:44;14.30;47.00
40534;DHT22;26233;51.894;10.192;2023-04-09T11:18:15;15.10;48.10
40534;DHT22;26233;51.894;10.192;2023-04-09T11:20:45;15.80;48.00
40534;DHT22;26233;51.894;10.192;2023-04-09T11:23:14;16.40;47.10
40534;DHT22;26233;51.894;10.192;2023-04-09T11:25:41;17.00;46.90
40534;DHT22;26233;51.894;10.192;2023-04-09T11:28:08;17.50;46.90
40534;DHT22;26233;51.894;10.192;2023-04-09T11:30:37;18.10;46.90
40534;DHT22;26233;51.894;10.192;2023-04-09T11:33:05;18.60;45.90
40534;DHT22;26233;51.894;10.192;2023-04-09T11:35:33;19.10;45.70
40534;DHT22;26233;51.894;10.192;2023-04-09T11:38:05;19.60;45.00
40534;DHT22;26233;51.894;10.192;2023-04-09T11:40:33;20.00;43.90
40534;DHT22;26233;51.894;10.192;2023-04-09T11:43:02;20.20;43.00
40534;DHT22;26233;51.894;10.192;2023-04-09T11:45:31;20.40;42.20
40534;DHT22;26233;51.894;10.192;2023-04-09T11:48:01;20.60;42.20
40534;DHT22;26233;51.894;10.192;2023-04-09T11:50:28;20.70;42.00
40534;DHT22;26233;51.894;10.192;2023-04-09T11:52:55;20.90;41.90
40534;DHT22;26233;51.894;10.192;2023-04-09T11:55:24;21.00;41.30
40534;DHT22;26233;51.894;10.192;2023-04-09T11:57:52;21.10;40.70
40534;DHT22;26233;51.894;10.192;2023-04-09T12:00:26;21.20;40.90
40534;DHT22;26233;51.894;10.192;2023-04-09T12:03:02;21.30;40.70
40534;DHT22;26233;51.894;10.192;2023-04-09T12:05:31;21.30;39.60
40534;DHT22;26233;51.894;10.192;2023-04-09T12:08:00;21.40;39.80
40534;DHT22;26233;51.894;10.192;2023-04-09T12:10:30;21.40;39.70
40534;DHT22;26233;51.894;10.192;2023-04-09T12:13:02;21.40;39.60
40534;DHT22;26233;51.894;10.192;2023-04-09T12:15:33;21.40;39.20
40534;DHT22;26233;51.894;10.192;2023-04-09T12:18:09;21.40;38.90
40534;DHT22;26233;51.894;10.192;2023-04-09T12:20:38;21.40;38.40
40534;DHT22;26233;51.894;10.192;2023-04-09T12:23:07;21.50;38.80
40534;DHT22;26233;51.894;10.192;2023-04-09T12:25:36;21.50;38.40
40534;DHT22;26233;51.894;10.192;2023-04-09T12:28:05;21.50;38.00
40534;DHT22;26233;51.894;10.192;2023-04-09T12:30:33;21.40;37.80
40534;DHT22;26233;51.894;10.192;2023-04-09T12:33:02;21.20;37.10
40534;DHT22;26233;51.894;10.192;2023-04-09T12:35:30;21.30;37.20
40534;DHT22;26233;51.894;10.192;2023-04-09T12:37:59;21.10;37.30
40534;DHT22;26233;51.894;10.192;2023-04-09T12:40:26;21.10;37.20
40534;DHT22;26233;51.894;10.192;2023-04-09T12:42:53;21.10;37.30
40534;DHT22;26233;51.894;10.192;2023-04-09T12:45:20;21.10;37.20
40534;DHT22;26233;51.894;10.192;2023-04-09T12:47:48;21.20;37.30
40534;DHT22;26233;51.894;10.192;2023-04-09T12:50:17;21.20;36.90
40534;DHT22;26233;51.894;10.192;2023-04-09T12:52:44;21.20;36.80
40534;DHT22;26233;51.894;10.192;2023-04-09T12:55:14;21.20;36.50
40534;DHT22;26233;51.894;10.192;2023-04-09T12:57:43;21.20;36.20
40534;DHT22;26233;51.894;10.192;2023-04-09T13:00:12;21.20;36.40
40534;DHT22;26233;51.894;10.192;2023-04-09T13:02:40;21.20;36.30
40534;DHT22;26233;51.894;10.192;2023-04-09T13:05:07;21.30;36.10
40534;DHT22;26233;51.894;10.192;2023-04-09T13:07:36;21.30;36.10
40534;DHT22;26233;51.894;10.192;2023-04-09T13:10:04;21.30;36.10
40534;DHT22;26233;51.894;10.192;2023-04-09T13:12:32;21.30;36.20
40534;DHT22;26233;51.894;10.192;2023-04-09T13:14:59;21.20;35.40
40534;DHT22;26233;51.894;10.192;2023-04-09T13:17:26;21.10;35.30
40534;DHT22;26233;51.894;10.192;2023-04-09T13:19:53;21.00;35.20
40534;DHT22;26233;51.894;10.192;2023-04-09T13:22:20;21.00;35.40
40534;DHT22;26233;51.894;10.192;2023-04-09T13:24:49;21.00;35.30
40534;DHT22;26233;51.894;10.192;2023-04-09T13:27:17;21.00;35.30
40534;DHT22;26233;51.894;10.192;2023-04-09T13:29:44;21.00;35.30
40534;DHT22;26233;51.894;10.192;2023-04-09T13:32:11;21.10;35.20
40534;DHT22;26233;51.894;10.192;2023-04-09T13:34:38;21.10;35.20
40534;DHT22;26233;51.894;10.192;2023-04-09T13:37:06;21.20;35.20
40534;DHT22;26233;51.894;10.192;2023-04-09T13:39:33;21.20;34.90
40534;DHT22;26233;51.894;10.192;2023-04-09T13:42:02;21.30;34.70
40534;DHT22;26233;51.894;10.192;2023-04-09T13:44:29;21.30;34.40
40534;DHT22;26233;51.894;10.192;2023-04-09T13:46:56;21.20;34.30
40534;DHT22;26233;51.894;10.192;2023-04-09T13:49:23;21.20;34.00
40534;DHT22;26233;51.894;10.192;2023-04-09T13:51:53;21.10;33.90
40534;DHT22;26233;51.894;10.192;2023-04-09T13:54:20;21.10;33.90
40534;DHT22;26233;51.894;10.192;2023-04-09T13:56:47;21.00;33.70
40534;DHT22;26233;51.894;10.192;2023-04-09T13:59:17;21.00;33.80
40534;DHT22;26233;51.894;10.192;2023-04-09T14:01:44;20.90;33.60
40534;DHT22;26233;51.894;10.192;2023-04-09T14:04:11;20.80;33.40
40534;DHT22;26233;51.894;10.192;2023-04-09T14:06:38;20.80;33.30
40534;DHT22;26233;51.894;10.192;2023-04-09T14:09:06;20.70;33.30
40534;DHT22;26233;51.894;10.192;2023-04-09T14:11:33;20.70;33.30
40534;DHT22;26233;51.894;10.192;2023-04-09T14:14:00;20.60;33.20
40534;DHT22;26233;51.894;10.192;2023-04-09T14:16:29;20.60;33.30
40534;DHT22;26233;51.894;10.192;2023-04-09T14:18:56;20.50;33.20
40534;DHT22;26233;51.894;10.192;2023-04-09T14:21:24;20.50;33.10
40534;DHT22;26233;51.894;10.192;2023-04-09T14:23:51;20.50;33.20
40534;DHT22;26233;51.894;10.192;2023-04-09T14:26:18;20.50;33.00
40534;DHT22;26233;51.894;10.192;2023-04-09T14:28:45;20.40;32.90
40534;DHT22;26233;51.894;10.192;2023-04-09T14:31:12;20.40;32.70
40534;DHT22;26233;51.894;10.192;2023-04-09T14:33:46;20.30;32.60
40534;DHT22;26233;51.894;10.192;2023-04-09T14:36:13;20.20;32.50
40534;DHT22;26233;51.894;10.192;2023-04-09T14:38:40;20.10;32.70
40534;DHT22;26233;51.894;10.192;2023-04-09T14:41:07;20.10;32.60
40534;DHT22;26233;51.894;10.192;2023-04-09T14:43:37;20.00;32.40
40534;DHT22;26233;51.894;10.192;2023-04-09T14:46:04;20.00;32.20
40534;DHT22;26233;51.894;10.192;2023-04-09T14:48:36;20.00;32.40
40534;DHT22;26233;51.894;10.192;2023-04-09T14:51:05;20.00;32.40
40534;DHT22;26233;51.894;10.192;2023-04-09T14:53:32;20.00;30.50
40534;DHT22;26233;51.894;10.192;2023-04-09T14:55:59;19.90;31.50
40534;DHT22;26233;51.894;10.192;2023-04-09T14:58:26;19.90;31.80
40534;DHT22;26233;51.894;10.192;2023-04-09T15:00:56;19.90;31.90
40534;DHT22;26233;51.894;10.192;2023-04-09T15:03:23;19.90;32.00
40534;DHT22;26233;51.894;10.192;2023-04-09T15:05:52;19.80;31.80
40534;DHT22;26233;51.894;10.192;2023-04-09T15:08:20;19.80;31.50
40534;DHT22;26233;51.894;10.192;2023-04-09T15:10:48;19.80;31.30
40534;DHT22;26233;51.894;10.192;2023-04-09T15:13:15;19.70;31.50
40534;DHT22;26233;51.894;10.192;2023-04-09T15:15:42;19.70;31.60
40534;DHT22;26233;51.894;10.192;2023-04-09T15:18:09;19.60;31.50
40534;DHT22;26233;51.894;10.192;2023-04-09T15:20:36;19.60;31.60
40534;DHT22;26233;51.894;10.192;2023-04-09T15:23:04;19.60;31.60
40534;DHT22;26233;51.894;10.192;2023-04-09T15:25:32;19.60;31.60
40534;DHT22;26233;51.894;10.192;2023-04-09T15:28:00;19.60;31.60
40534;DHT22;26233;51.894;10.192;2023-04-09T15:30:27;19.60;31.50
40534;DHT22;26233;51.894;10.192;2023-04-09T15:32:54;19.60;31.40